Time;durP1;ratioP1;P1;durP2;ratioP2;P2;SDS_P1;SDS_P2;PMS_P1;PMS_P2;Temp;Humidity;BMP_temperature;BMP_pressure;BME280_temperature;BME280_humidity;BME280_pressure;Samples;Min_cycle;Max_cycle;Signal;HPM_P1;HPM_P2
2023/05/02 00:02:32;;;;;;;5.05;2.45;;;;;;;;;;5118639;27;20165;-63
2023/05/02 00:06:12;;;;;;;7.68;3.00;;;;;;;;;;5121874;27;20051;-63
2023/05/02 00:09:53;;;;;;;6.65;2.78;;;;;;;;;;5119770;27;20507;-66
2023/05/02 00:13:33;;;;;;;6.97;2.45;;;;;;;;;;5122051;27;20142;-64
2023/05/02 00:17:14;;;;;;;7.70;2.80;;;;;;;;;;5116777;27;20053;-63
2023/05/02 00:20:54;;;;;;;3.95;2.10;;;;;;;;;;5132733;27;20055;-64
2023/05/02 00:24:34;;;;;;;4.55;2.17;;;;;;;;;;5122355;27;20068;-63
2023/05/02 00:28:16;;;;;;;6.60;2.55;;;;;;;;;;5120585;27;20051;-64
2023/05/02 00:31:57;;;;;;;10.65;3.00;;;;;;;;;;5123730;27;20108;-64
2023/05/02 00:35:37;;;;;;;7.70;2.50;;;;;;;;;;5122919;27;20510;-63
2023/05/02 00:39:17;;;;;;;10.18;3.00;;;;;;;;;;5119846;27;20042;-63
2023/05/02 00:42:58;;;;;;;11.32;2.92;;;;;;;;;;5121136;27;20053;-62
2023/05/02 00:46:38;;;;;;;7.72;2.90;;;;;;;;;;5122310;27;20053;-64
2023/05/02 00:50:19;;;;;;;7.95;2.90;;;;;;;;;;5119838;27;20070;-61
2023/05/02 00:53:59;;;;;;;4.22;2.60;;;;;;;;;;5118973;27;20421;-62
2023/05/02 00:57:40;;;;;;;7.07;2.70;;;;;;;;;;5120117;27;20637;-64
2023/05/02 01:00:59;;;;;;;7.47;2.50;;;;;;;;;;5120248;27;20062;-61
2023/05/02 01:04:03;;;;;;;4.18;2.40;;;;;;;;;;5119273;27;20088;-63
2023/05/02 01:07:54;;;;;;;6.82;3.30;;;;;;;;;;5118355;27;20565;-62
2023/05/02 01:11:35;;;;;;;6.65;2.80;;;;;;;;;;5120614;27;20045;-61
2023/05/02 01:15:15;;;;;;;6.85;2.72;;;;;;;;;;5120545;27;20116;-62
2023/05/02 01:18:56;;;;;;;7.72;2.90;;;;;;;;;;5120079;27;20055;-62
2023/05/02 01:22:36;;;;;;;5.63;2.40;;;;;;;;;;5127347;27;20410;-61
2023/05/02 01:26:20;;;;;;;4.35;2.58;;;;;;;;;;5116283;27;20126;-65
2023/05/02 01:30:00;;;;;;;7.97;2.58;;;;;;;;;;5119194;27;20046;-64
2023/05/02 01:33:40;;;;;;;6.63;2.72;;;;;;;;;;5121501;27;20517;-67
2023/05/02 01:37:20;;;;;;;5.20;2.60;;;;;;;;;;5120365;27;20093;-62
2023/05/02 01:41:06;;;;;;;4.90;2.20;;;;;;;;;;5118886;27;20038;-62
2023/05/02 01:44:44;;;;;;;8.23;2.75;;;;;;;;;;5120165;27;20051;-63
2023/05/02 01:48:24;;;;;;;6.07;2.20;;;;;;;;;;5122028;27;20554;-64
2023/05/02 01:52:10;;;;;;;5.88;2.40;;;;;;;;;;5115950;27;20052;-67
2023/05/02 01:55:47;;;;;;;5.25;2.35;;;;;;;;;;5120454;27;20492;-65
2023/05/02 01:59:30;;;;;;;6.45;2.45;;;;;;;;;;5123413;27;20792;-64
2023/05/02 02:03:11;;;;;;;4.82;2.20;;;;;;;;;;5124221;27;20053;-64
2023/05/02 02:06:51;;;;;;;4.68;2.50;;;;;;;;;;5124302;27;20536;-62
2023/05/02 02:10:31;;;;;;;4.35;2.30;;;;;;;;;;5124478;27;20494;-66
2023/05/02 02:14:12;;;;;;;7.28;2.40;;;;;;;;;;5125479;27;20051;-63
2023/05/02 02:17:44;;;;;;;5.32;2.15;;;;;;;;;;5122966;27;20054;-64
2023/05/02 02:21:25;;;;;;;6.57;2.25;;;;;;;;;;5126517;27;20054;-64
2023/05/02 02:25:04;;;;;;;9.45;2.70;;;;;;;;;;5121432;27;20070;-61
2023/05/02 02:28:45;;;;;;;10.40;2.60;;;;;;;;;;5122946;27;20046;-60
2023/05/02 02:32:25;;;;;;;4.28;2.20;;;;;;;;;;5128085;27;22052;-60
2023/05/02 02:36:05;;;;;;;3.67;2.05;;;;;;;;;;5123667;27;20164;-60
2023/05/02 02:39:26;;;;;;;6.55;2.25;;;;;;;;;;5124240;27;20039;-63
2023/05/02 02:43:01;;;;;;;6.18;2.00;;;;;;;;;;5126848;27;20649;-65
2023/05/02 02:46:53;;;;;;;4.90;2.10;;;;;;;;;;5125442;27;20088;-62
2023/05/02 02:49:56;;;;;;;9.68;2.20;;;;;;;;;;5038259;28;20106;-62
2023/05/02 02:53:23;;;;;;;5.25;2.42;;;;;;;;;;5039515;28;20102;-62
2023/05/02 02:57:06;;;;;;;6.47;2.33;;;;;;;;;;5036556;28;20619;-59
2023/05/02 03:00:46;;;;;;;4.43;2.13;;;;;;;;;;5038480;28;20073;-62
2023/05/02 03:04:26;;;;;;;6.32;2.65;;;;;;;;;;5037271;28;20573;-63
2023/05/02 03:08:07;;;;;;;6.20;2.22;;;;;;;;;;5038991;28;20068;-66
2023/05/02 03:11:47;;;;;;;5.55;2.55;;;;;;;;;;5035104;28;20647;-63
2023/05/02 03:15:10;;;;;;;7.82;3.47;;;;;;;;;;5039770;28;20126;-61
2023/05/02 03:18:51;;;;;;;6.63;3.33;;;;;;;;;;5039094;28;20100;-62
2023/05/02 03:22:31;;;;;;;6.63;3.70;;;;;;;;;;5042163;28;20055;-61
2023/05/02 03:26:12;;;;;;;8.35;3.25;;;;;;;;;;5098503;27;20648;-60
2023/05/02 03:29:52;;;;;;;10.15;3.35;;;;;;;;;;5122147;27;20097;-62
2023/05/02 03:33:32;;;;;;;10.77;3.38;;;;;;;;;;5123394;27;20518;-63
2023/05/02 03:37:12;;;;;;;5.63;2.95;;;;;;;;;;5124337;27;20047;-62
2023/05/02 03:40:53;;;;;;;7.25;3.03;;;;;;;;;;5123164;27;20035;-60
2023/05/02 03:44:33;;;;;;;8.93;2.70;;;;;;;;;;5122031;27;20038;-63
2023/05/02 03:48:13;;;;;;;7.22;2.92;;;;;;;;;;5122229;27;20495;-60
2023/05/02 03:51:54;;;;;;;6.25;2.90;;;;;;;;;;5124342;27;20047;-61
2023/05/02 03:55:34;;;;;;;6.22;3.20;;;;;;;;;;5121000;27;20078;-60
2023/05/02 03:59:14;;;;;;;5.10;3.22;;;;;;;;;;5121249;27;20530;-61
2023/05/02 04:02:55;;;;;;;11.07;3.70;;;;;;;;;;5121604;27;20185;-62
2023/05/02 04:06:35;;;;;;;6.90;3.80;;;;;;;;;;5122371;27;20035;-63
2023/05/02 04:10:16;;;;;;;12.63;4.00;;;;;;;;;;5126865;27;20054;-63
2023/05/02 04:13:56;;;;;;;8.65;3.72;;;;;;;;;;5120182;27;20920;-62
2023/05/02 04:17:36;;;;;;;15.27;3.92;;;;;;;;;;5127435;27;20551;-61
2023/05/02 04:21:17;;;;;;;8.60;3.60;;;;;;;;;;5132968;27;20062;-61
2023/05/02 04:24:57;;;;;;;7.85;3.55;;;;;;;;;;5123258;27;20061;-62
2023/05/02 04:28:37;;;;;;;5.97;3.22;;;;;;;;;;5123127;27;20129;-61
2023/05/02 04:32:18;;;;;;;7.45;3.47;;;;;;;;;;5117393;27;20055;-62
2023/05/02 04:35:58;;;;;;;7.72;2.85;;;;;;;;;;5122642;27;20125;-62
2023/05/02 04:39:38;;;;;;;9.32;3.03;;;;;;;;;;5121910;27;20043;-62
2023/05/02 04:43:19;;;;;;;7.47;2.53;;;;;;;;;;5121254;27;20076;-61
2023/05/02 04:46:59;;;;;;;6.53;2.42;;;;;;;;;;5122604;27;20074;-62
2023/05/02 04:50:39;;;;;;;6.70;2.58;;;;;;;;;;5123362;27;20055;-63
2023/05/02 04:54:20;;;;;;;6.15;2.20;;;;;;;;;;5123407;27;20067;-63
2023/05/02 04:58:00;;;;;;;6.88;2.50;;;;;;;;;;5121686;27;21460;-61
2023/05/02 05:01:40;;;;;;;6.88;2.00;;;;;;;;;;5121645;27;20047;-61
2023/05/02 05:05:21;;;;;;;5.05;2.60;;;;;;;;;;5118967;27;20093;-61
2023/05/02 05:09:01;;;;;;;7.00;2.22;;;;;;;;;;5121912;27;20092;-63
2023/05/02 05:12:41;;;;;;;8.82;1.92;;;;;;;;;;5119435;27;20100;-62
2023/05/02 05:16:22;;;;;;;4.13;1.65;;;;;;;;;;5125463;27;20107;-61
2023/05/02 05:20:02;;;;;;;6.35;2.20;;;;;;;;;;5123867;27;20058;-63
2023/05/02 05:23:44;;;;;;;17.95;2.30;;;;;;;;;;5118075;27;20177;-61
2023/05/02 05:27:23;;;;;;;6.13;2.30;;;;;;;;;;5127184;27;20043;-63
2023/05/02 05:31:03;;;;;;;8.05;2.30;;;;;;;;;;5126602;27;20511;-62
2023/05/02 05:34:43;;;;;;;9.05;2.50;;;;;;;;;;5126719;27;20106;-62
2023/05/02 05:38:23;;;;;;;6.10;2.53;;;;;;;;;;5124258;27;20123;-61
2023/05/02 05:42:05;;;;;;;6.05;2.35;;;;;;;;;;5123083;27;20047;-62
2023/05/02 05:45:45;;;;;;;10.23;2.20;;;;;;;;;;5122662;27;20467;-65
2023/05/02 05:49:27;;;;;;;23.50;3.42;;;;;;;;;;5127247;27;20065;-68
2023/05/02 05:54:03;;;;;;;98.30;6.82;;;;;;;;;;4607669;27;15086155;-67
2023/05/02 05:57:43;;;;;;;31.48;4.88;;;;;;;;;;5123833;27;20047;-66
2023/05/02 06:01:25;;;;;;;30.65;3.60;;;;;;;;;;5125383;27;20046;-67
2023/05/02 06:05:07;;;;;;;36.95;3.72;;;;;;;;;;5122819;27;20096;-68
2023/05/02 06:08:47;;;;;;;49.55;5.90;;;;;;;;;;5125342;27;20536;-66
2023/05/02 06:12:27;;;;;;;96.82;7.72;;;;;;;;;;5124021;27;20043;-69
2023/05/02 06:16:08;;;;;;;76.60;6.38;;;;;;;;;;5132873;27;20031;-67
2023/05/02 06:19:49;;;;;;;80.25;6.05;;;;;;;;;;5124993;27;20074;-66
2023/05/02 06:23:29;;;;;;;56.85;5.43;;;;;;;;;;5127766;27;20277;-65
2023/05/02 06:27:10;;;;;;;45.75;4.28;;;;;;;;;;5124841;27;20188;-62
2023/05/02 06:30:50;;;;;;;28.00;3.67;;;;;;;;;;5118824;27;20047;-66
2023/05/02 06:34:31;;;;;;;43.88;5.25;;;;;;;;;;5121099;27;20042;-67
2023/05/02 06:38:11;;;;;;;26.85;4.40;;;;;;;;;;5120314;27;20373;-67
2023/05/02 06:41:51;;;;;;;12.10;3.53;;;;;;;;;;5122683;27;20051;-67
2023/05/02 06:45:31;;;;;;;23.60;4.70;;;;;;;;;;5117340;27;20057;-67
2023/05/02 06:49:12;;;;;;;28.80;4.18;;;;;;;;;;5115934;27;20047;-66
2023/05/02 06:52:53;;;;;;;8.90;2.58;;;;;;;;;;5123283;27;20051;-67
2023/05/02 06:56:33;;;;;;;8.75;2.60;;;;;;;;;;5123840;27;20473;-66
2023/05/02 07:00:13;;;;;;;15.60;2.85;;;;;;;;;;5124476;27;20063;-68
2023/05/02 07:03:53;;;;;;;13.75;3.08;;;;;;;;;;5116310;27;20050;-66
2023/05/02 07:07:35;;;;;;;10.00;2.33;;;;;;;;;;5110322;27;20244;-65
2023/05/02 07:11:15;;;;;;;9.40;2.42;;;;;;;;;;5110333;27;20111;-66
2023/05/02 07:14:56;;;;;;;18.85;2.50;;;;;;;;;;5110603;27;20055;-65
2023/05/02 07:18:36;;;;;;;11.32;2.22;;;;;;;;;;5110087;27;20149;-66
2023/05/02 07:22:16;;;;;;;17.23;5.47;;;;;;;;;;5111489;27;20134;-66
2023/05/02 07:25:57;;;;;;;10.50;2.47;;;;;;;;;;5110761;27;20419;-66
2023/05/02 07:29:37;;;;;;;6.43;1.88;;;;;;;;;;5089732;27;20169;-65
2023/05/02 07:33:18;;;;;;;4.78;1.75;;;;;;;;;;5110200;27;20590;-64
2023/05/02 07:36:58;;;;;;;10.85;2.58;;;;;;;;;;5106485;27;20051;-65
2023/05/02 07:40:38;;;;;;;23.00;3.15;;;;;;;;;;5084795;27;20062;-66
2023/05/02 07:44:19;;;;;;;26.75;4.80;;;;;;;;;;5091711;27;20525;-67
2023/05/02 07:47:59;;;;;;;8.48;2.33;;;;;;;;;;5113124;27;20046;-67
2023/05/02 07:51:49;;;;;;;7.72;2.38;;;;;;;;;;5107658;27;20683;-64
2023/05/02 07:55:32;;;;;;;11.68;2.30;;;;;;;;;;5107351;27;20053;-65
2023/05/02 07:59:10;;;;;;;10.50;3.40;;;;;;;;;;5108890;27;20391;-65
2023/05/02 08:02:50;;;;;;;9.73;3.03;;;;;;;;;;5106912;27;20120;-68
2023/05/02 08:06:33;;;;;;;9.52;2.60;;;;;;;;;;5107595;27;20057;-69
2023/05/02 08:10:11;;;;;;;5.82;1.95;;;;;;;;;;5110945;27;20814;-65
2023/05/02 08:13:51;;;;;;;6.90;2.05;;;;;;;;;;5109250;27;20053;-66
2023/05/02 08:17:31;;;;;;;6.28;1.90;;;;;;;;;;5112994;27;20058;-64
2023/05/02 08:21:11;;;;;;;4.05;1.88;;;;;;;;;;5115535;27;20035;-66
2023/05/02 08:24:52;;;;;;;7.10;1.80;;;;;;;;;;5106564;27;20570;-66
2023/05/02 08:28:32;;;;;;;4.22;1.95;;;;;;;;;;5110022;27;20051;-66
2023/05/02 08:32:13;;;;;;;11.10;2.50;;;;;;;;;;5108995;27;20346;-65
2023/05/02 08:35:53;;;;;;;4.65;1.90;;;;;;;;;;5108508;27;20050;-67
2023/05/02 08:39:33;;;;;;;6.80;2.65;;;;;;;;;;5110393;27;20573;-66
2023/05/02 08:43:15;;;;;;;4.65;2.03;;;;;;;;;;5110225;27;20057;-65
2023/05/02 08:46:56;;;;;;;5.90;2.55;;;;;;;;;;5109920;27;20274;-64
2023/05/02 08:50:37;;;;;;;7.47;2.28;;;;;;;;;;5104322;27;20332;-68
2023/05/02 08:54:17;;;;;;;6.88;1.70;;;;;;;;;;5109279;27;20047;-64
2023/05/02 08:57:58;;;;;;;4.57;1.77;;;;;;;;;;5110633;27;20074;-63
2023/05/02 09:01:41;;;;;;;8.38;1.80;;;;;;;;;;5105633;27;20046;-68
2023/05/02 09:05:21;;;;;;;5.13;1.38;;;;;;;;;;5108911;27;20076;-63
2023/05/02 09:09:02;;;;;;;2.88;1.77;;;;;;;;;;5109452;27;20055;-65
2023/05/02 09:12:45;;;;;;;8.57;2.70;;;;;;;;;;5107390;27;20491;-67
2023/05/02 09:16:25;;;;;;;7.30;1.73;;;;;;;;;;5108757;27;20407;-66
2023/05/02 09:20:06;;;;;;;5.55;1.35;;;;;;;;;;5106880;27;20155;-64
2023/05/02 09:23:52;;;;;;;5.82;1.73;;;;;;;;;;5125241;27;20039;-65
2023/05/02 09:27:35;;;;;;;9.18;1.60;;;;;;;;;;5107674;27;20034;-65
2023/05/02 09:31:16;;;;;;;3.67;1.33;;;;;;;;;;5108778;27;20164;-63
2023/05/02 09:34:56;;;;;;;4.93;1.42;;;;;;;;;;5110077;27;20071;-64
2023/05/02 09:38:36;;;;;;;9.00;2.08;;;;;;;;;;5106346;27;20043;-63
2023/05/02 09:42:23;;;;;;;4.38;1.55;;;;;;;;;;5103754;27;20047;-64
2023/05/02 09:45:43;;;;;;;;;;;;;;;;;;5106808;27;20144;-62
2023/05/02 09:49:30;;;;;;;7.35;2.15;;;;;;;;;;5105693;27;19954;-64
2023/05/02 09:53:23;;;;;;;11.93;2.40;;;;;;;;;;5108019;27;20477;-63
2023/05/02 09:56:53;;;;;;;7.57;2.15;;;;;;;;;;5104282;27;20418;-63
2023/05/02 10:00:34;;;;;;;11.95;3.55;;;;;;;;;;5102396;27;20044;-64
2023/05/02 10:04:18;;;;;;;18.17;3.25;;;;;;;;;;5105879;27;20047;-63
2023/05/02 10:07:54;;;;;;;8.95;2.63;;;;;;;;;;5106736;27;20055;-62
2023/05/02 10:11:35;;;;;;;12.85;4.35;;;;;;;;;;5110481;27;20057;-65
2023/05/02 10:15:15;;;;;;;5.75;2.38;;;;;;;;;;5105813;27;20106;-63
2023/05/02 10:18:36;;;;;;;10.48;3.05;;;;;;;;;;5110753;27;20035;-65
2023/05/02 10:22:16;;;;;;;9.75;3.30;;;;;;;;;;5106723;27;20348;-63
2023/05/02 10:25:56;;;;;;;12.82;4.40;;;;;;;;;;5101107;27;20054;-65
2023/05/02 10:29:37;;;;;;;13.25;4.55;;;;;;;;;;5104465;27;20485;-65
2023/05/02 10:33:18;;;;;;;9.85;3.40;;;;;;;;;;5106065;27;20059;-65
2023/05/02 10:37:03;;;;;;;6.20;1.88;;;;;;;;;;5106151;27;20047;-66
2023/05/02 10:40:43;;;;;;;18.52;6.32;;;;;;;;;;5108140;27;20043;-63
2023/05/02 10:44:27;;;;;;;7.03;2.97;;;;;;;;;;5108654;27;20133;-64
2023/05/02 10:48:08;;;;;;;8.98;3.58;;;;;;;;;;5111191;27;20047;-62
2023/05/02 10:51:48;;;;;;;10.52;2.50;;;;;;;;;;5105530;27;20121;-63
2023/05/02 10:55:32;;;;;;;12.07;2.92;;;;;;;;;;5107895;27;20063;-63
2023/05/02 10:59:12;;;;;;;10.38;3.03;;;;;;;;;;5106039;27;20490;-64
2023/05/02 11:02:26;;;;;;;9.60;3.83;;;;;;;;;;5110764;27;20081;-64
2023/05/02 11:06:06;;;;;;;13.13;4.03;;;;;;;;;;5112569;27;20055;-64
2023/05/02 11:09:16;;;;;;;9.50;3.47;;;;;;;;;;5111921;27;20454;-64
2023/05/02 11:13:04;;;;;;;9.10;2.25;;;;;;;;;;5107562;27;20043;-65
2023/05/02 11:16:44;;;;;;;11.52;2.28;;;;;;;;;;5108823;27;20122;-70
2023/05/02 11:19:45;;;;;;;12.80;3.58;;;;;;;;;;5120127;27;20102;-65
2023/05/02 11:23:26;;;;;;;8.80;2.10;;;;;;;;;;5111139;27;20487;-65
2023/05/02 11:27:06;;;;;;;5.63;2.08;;;;;;;;;;5107811;27;20066;-67
2023/05/02 11:30:59;;;;;;;7.22;3.50;;;;;;;;;;5109784;27;20674;-67
2023/05/02 11:34:42;;;;;;;8.48;3.72;;;;;;;;;;5101819;27;20048;-68
2023/05/02 11:38:23;;;;;;;6.60;2.55;;;;;;;;;;5108031;27;20049;-72
2023/05/02 11:42:03;;;;;;;6.68;2.58;;;;;;;;;;5107848;27;20057;-65
2023/05/02 11:45:52;;;;;;;12.02;2.83;;;;;;;;;;5105355;27;20046;-67
2023/05/02 11:49:32;;;;;;;13.98;3.35;;;;;;;;;;5108356;27;20042;-66
2023/05/02 11:53:16;;;;;;;7.13;2.60;;;;;;;;;;5104690;27;20058;-66
2023/05/02 11:56:58;;;;;;;5.93;1.88;;;;;;;;;;5109438;27;20047;-65
2023/05/02 12:00:38;;;;;;;4.75;1.80;;;;;;;;;;5107379;27;20043;-65
2023/05/02 12:04:22;;;;;;;10.75;1.50;;;;;;;;;;5111010;27;20056;-65
2023/05/02 12:08:05;;;;;;;6.88;1.48;;;;;;;;;;5112470;27;20263;-66
2023/05/02 12:11:45;;;;;;;3.83;1.52;;;;;;;;;;5114988;27;20051;-67
2023/05/02 12:15:27;;;;;;;2.83;1.40;;;;;;;;;;5112724;27;20617;-65
2023/05/02 12:19:09;;;;;;;10.30;1.70;;;;;;;;;;5111157;27;20486;-67
2023/05/02 12:22:49;;;;;;;8.95;1.48;;;;;;;;;;5108563;27;20077;-65
2023/05/02 12:26:38;;;;;;;3.65;1.25;;;;;;;;;;5106902;27;20486;-68
2023/05/02 12:30:19;;;;;;;3.03;1.17;;;;;;;;;;5109195;27;20099;-65
2023/05/02 12:34:01;;;;;;;7.00;1.48;;;;;;;;;;5107908;27;20039;-64
2023/05/02 12:37:43;;;;;;;3.88;1.23;;;;;;;;;;5110850;27;20074;-64
2023/05/02 12:41:25;;;;;;;3.78;1.60;;;;;;;;;;5108420;27;20632;-67
2023/05/02 12:45:15;;;;;;;7.07;1.58;;;;;;;;;;5108477;27;20398;-68
2023/05/02 12:49:01;;;;;;;8.15;2.72;;;;;;;;;;5106468;27;20664;-64
2023/05/02 12:52:22;;;;;;;;;;;;;;;;;;5109179;27;20054;-65
2023/05/02 12:56:02;;;;;;;4.47;1.40;;;;;;;;;;5106885;27;19927;-66
2023/05/02 12:59:45;;;;;;;3.03;1.27;;;;;;;;;;5108469;27;20526;-65
2023/05/02 13:03:26;;;;;;;6.47;1.33;;;;;;;;;;5109611;27;20363;-66
2023/05/02 13:07:06;;;;;;;7.30;1.25;;;;;;;;;;5110138;27;20058;-65
2023/05/02 13:10:47;;;;;;;2.67;1.00;;;;;;;;;;5110426;27;20423;-64
2023/05/02 13:14:28;;;;;;;4.20;1.48;;;;;;;;;;5108055;27;20051;-65
2023/05/02 13:18:08;;;;;;;4.85;1.00;;;;;;;;;;5111306;27;20513;-63
2023/05/02 13:21:49;;;;;;;2.58;1.00;;;;;;;;;;5110809;27;20046;-65
2023/05/02 13:25:29;;;;;;;3.65;1.40;;;;;;;;;;5110244;27;20062;-65
2023/05/02 13:29:10;;;;;;;2.72;0.90;;;;;;;;;;5109837;27;20038;-64
2023/05/02 13:32:50;;;;;;;2.50;1.20;;;;;;;;;;5109223;27;20236;-65
2023/05/02 13:36:30;;;;;;;9.40;1.30;;;;;;;;;;5107822;27;20498;-66
2023/05/02 13:40:10;;;;;;;6.03;1.27;;;;;;;;;;5107863;27;20049;-65
2023/05/02 13:43:51;;;;;;;3.22;1.35;;;;;;;;;;5107613;27;20431;-64
2023/05/02 13:47:31;;;;;;;6.25;1.42;;;;;;;;;;5108676;27;20184;-64
2023/05/02 13:51:11;;;;;;;9.00;1.20;;;;;;;;;;5090244;27;20380;-62
2023/05/02 13:54:53;;;;;;;14.88;1.98;;;;;;;;;;5093227;27;20185;-62
2023/05/02 13:57:55;;;;;;;37.28;4.53;;;;;;;;;;5111471;27;20118;-65
2023/05/02 14:00:21;;;;;;;35.97;4.78;;;;;;;;;;5110937;27;20108;-63
2023/05/02 14:02:47;;;;;;;14.40;2.17;;;;;;;;;;5113482;27;20051;-63
2023/05/02 14:05:14;;;;;;;19.17;2.47;;;;;;;;;;5106179;27;20075;-62
2023/05/02 14:07:39;;;;;;;10.57;1.38;;;;;;;;;;5102329;27;20051;-64
2023/05/02 14:10:07;;;;;;;4.68;0.90;;;;;;;;;;5109029;27;20074;-63
2023/05/02 14:12:32;;;;;;;5.88;1.15;;;;;;;;;;5111791;27;20039;-62
2023/05/02 14:14:58;;;;;;;9.07;1.52;;;;;;;;;;5107577;27;20445;-61
2023/05/02 14:17:25;;;;;;;3.72;1.40;;;;;;;;;;5109017;27;20175;-61
2023/05/02 14:19:51;;;;;;;5.72;1.92;;;;;;;;;;5112983;27;20257;-62
2023/05/02 14:22:18;;;;;;;11.35;1.67;;;;;;;;;;5112976;27;20496;-62
2023/05/02 14:24:44;;;;;;;3.90;1.48;;;;;;;;;;5112253;27;20086;-64
2023/05/02 14:27:16;;;;;;;6.78;1.10;;;;;;;;;;5107578;27;20134;-65
2023/05/02 14:29:44;;;;;;;8.07;1.50;;;;;;;;;;5108457;27;20047;-65
2023/05/02 14:32:10;;;;;;;5.40;1.45;;;;;;;;;;5108584;27;20072;-62
2023/05/02 14:34:36;;;;;;;4.10;1.08;;;;;;;;;;5112067;27;20058;-64
2023/05/02 14:37:02;;;;;;;3.83;1.02;;;;;;;;;;5113360;27;20410;-64
2023/05/02 14:39:28;;;;;;;5.70;1.30;;;;;;;;;;5089243;27;20062;-63
2023/05/02 14:41:54;;;;;;;4.88;1.13;;;;;;;;;;5112365;27;20055;-62
2023/05/02 14:44:20;;;;;;;6.13;1.30;;;;;;;;;;5108982;27;20059;-64
2023/05/02 14:46:46;;;;;;;4.35;1.23;;;;;;;;;;5092997;27;20050;-66
2023/05/02 14:49:12;;;;;;;9.98;1.20;;;;;;;;;;5112294;27;20055;-64
2023/05/02 14:51:39;;;;;;;5.93;1.27;;;;;;;;;;5106458;27;20055;-62
2023/05/02 14:54:05;;;;;;;3.78;1.15;;;;;;;;;;5106228;27;20738;-62
2023/05/02 14:56:32;;;;;;;5.85;1.15;;;;;;;;;;5110423;27;20047;-68
2023/05/02 14:58:58;;;;;;;6.85;1.30;;;;;;;;;;5107315;27;20047;-62
2023/05/02 15:01:24;;;;;;;9.60;1.60;;;;;;;;;;5111489;27;20708;-65
2023/05/02 15:03:51;;;;;;;6.82;1.35;;;;;;;;;;5105601;27;20075;-64
2023/05/02 15:06:17;;;;;;;5.05;1.20;;;;;;;;;;5115777;27;21464;-63
2023/05/02 15:08:46;;;;;;;6.82;1.58;;;;;;;;;;5115091;27;20050;-64
2023/05/02 15:11:12;;;;;;;10.88;1.70;;;;;;;;;;5113933;27;20528;-65
2023/05/02 15:13:38;;;;;;;4.45;1.38;;;;;;;;;;5110673;27;20078;-65
2023/05/02 15:16:04;;;;;;;3.17;1.30;;;;;;;;;;5093008;27;20143;-62
2023/05/02 15:18:30;;;;;;;6.03;1.38;;;;;;;;;;5112736;27;20259;-65
2023/05/02 15:20:56;;;;;;;4.88;1.33;;;;;;;;;;5116113;27;20103;-64
2023/05/02 15:23:22;;;;;;;4.78;1.10;;;;;;;;;;5112487;27;20414;-63
2023/05/02 15:25:48;;;;;;;7.65;1.40;;;;;;;;;;5116058;27;20043;-66
2023/05/02 15:28:17;;;;;;;4.53;1.27;;;;;;;;;;5110410;27;20146;-65
2023/05/02 15:30:43;;;;;;;5.97;1.67;;;;;;;;;;5110586;27;20047;-61
2023/05/02 15:33:10;;;;;;;6.38;1.55;;;;;;;;;;5110885;27;20058;-63
2023/05/02 15:35:36;;;;;;;3.20;1.50;;;;;;;;;;5110793;27;20055;-63
2023/05/02 15:38:02;;;;;;;5.43;1.42;;;;;;;;;;5108870;27;20058;-63
2023/05/02 15:40:27;;;;;;;10.25;1.33;;;;;;;;;;5111679;27;20474;-61
2023/05/02 15:42:54;;;;;;;4.00;1.48;;;;;;;;;;5113280;27;20046;-61
2023/05/02 15:45:21;;;;;;;6.55;1.50;;;;;;;;;;5113309;27;20265;-69
2023/05/02 15:47:47;;;;;;;8.15;1.40;;;;;;;;;;5113676;27;20059;-62
2023/05/02 15:50:13;;;;;;;7.65;1.70;;;;;;;;;;5113488;27;20136;-67
2023/05/02 15:52:39;;;;;;;14.60;1.80;;;;;;;;;;5109418;27;20787;-68
2023/05/02 15:55:05;;;;;;;6.38;1.80;;;;;;;;;;5117803;27;20506;-65
2023/05/02 15:57:31;;;;;;;14.50;2.33;;;;;;;;;;5115320;27;20054;-63
2023/05/02 16:00:37;;;;;;;16.27;1.90;;;;;;;;;;5114798;27;20409;-65
2023/05/02 16:04:17;;;;;;;7.38;1.52;;;;;;;;;;5110906;27;20148;-63
2023/05/02 16:07:57;;;;;;;7.57;1.80;;;;;;;;;;5108490;27;20096;-64
2023/05/02 16:11:38;;;;;;;5.18;1.73;;;;;;;;;;5110021;27;20050;-65
2023/05/02 16:15:18;;;;;;;10.32;1.58;;;;;;;;;;5109038;27;20476;-64
2023/05/02 16:18:58;;;;;;;11.27;1.48;;;;;;;;;;5108307;27;20053;-66
2023/05/02 16:22:39;;;;;;;4.28;1.73;;;;;;;;;;5108866;27;22161;-66
2023/05/02 16:26:19;;;;;;;3.75;1.38;;;;;;;;;;5110041;27;20058;-67
2023/05/02 16:29:59;;;;;;;7.03;2.17;;;;;;;;;;5111851;27;20625;-68
2023/05/02 16:33:41;;;;;;;8.45;1.80;;;;;;;;;;5108739;27;20039;-67
2023/05/02 16:37:20;;;;;;;9.77;2.10;;;;;;;;;;5108725;27;20171;-65
2023/05/02 16:41:00;;;;;;;3.53;1.30;;;;;;;;;;5109380;27;20099;-69
2023/05/02 16:44:41;;;;;;;5.80;1.50;;;;;;;;;;5108647;27;20043;-68
2023/05/02 16:48:22;;;;;;;5.95;1.25;;;;;;;;;;5109345;27;20035;-70
2023/05/02 16:52:03;;;;;;;8.52;1.85;;;;;;;;;;5109500;27;20074;-66
2023/05/02 16:55:43;;;;;;;8.52;1.50;;;;;;;;;;5113568;27;20503;-68
2023/05/02 16:59:23;;;;;;;10.15;1.77;;;;;;;;;;5109612;27;20057;-63
2023/05/02 17:03:04;;;;;;;14.20;1.80;;;;;;;;;;5110262;27;20047;-64
2023/05/02 17:06:44;;;;;;;4.25;1.35;;;;;;;;;;5110264;27;22557;-63
2023/05/02 17:10:25;;;;;;;5.47;1.67;;;;;;;;;;5107263;27;20054;-63
2023/05/02 17:13:25;;;;;;;4.15;1.63;;;;;;;;;;5106690;27;20047;-65
2023/05/02 17:16:31;;;;;;;4.63;1.67;;;;;;;;;;5109653;27;20047;-64
2023/05/02 17:20:16;;;;;;;6.47;1.40;;;;;;;;;;5112630;27;20061;-62
2023/05/02 17:23:55;;;;;;;6.53;1.65;;;;;;;;;;5107720;27;20053;-65
2023/05/02 17:27:35;;;;;;;4.97;1.40;;;;;;;;;;5107323;27;20648;-62
2023/05/02 17:31:15;;;;;;;10.60;2.17;;;;;;;;;;5109345;27;20081;-65
2023/05/02 17:34:56;;;;;;;10.43;1.88;;;;;;;;;;5105297;27;20043;-64
2023/05/02 17:37:56;;;;;;;9.77;1.88;;;;;;;;;;5104343;27;20134;-62
2023/05/02 17:40:27;;;;;;;8.10;2.08;;;;;;;;;;5108333;27;20678;-63
2023/05/02 17:42:54;;;;;;;6.15;1.60;;;;;;;;;;5108750;27;20058;-64
2023/05/02 17:45:20;;;;;;;5.55;1.58;;;;;;;;;;5090200;27;20059;-63
2023/05/02 17:47:46;;;;;;;5.25;1.90;;;;;;;;;;5103841;27;20118;-63
2023/05/02 17:50:13;;;;;;;13.50;2.20;;;;;;;;;;5105711;27;20043;-65
2023/05/02 17:52:39;;;;;;;4.95;2.08;;;;;;;;;;5104607;27;20131;-62
2023/05/02 17:55:07;;;;;;;7.70;1.77;;;;;;;;;;5106373;27;20089;-63
2023/05/02 17:57:33;;;;;;;11.45;1.90;;;;;;;;;;5108867;27;20506;-65
2023/05/02 17:59:59;;;;;;;3.92;1.60;;;;;;;;;;5105153;27;20296;-63
2023/05/02 18:02:26;;;;;;;3.95;1.60;;;;;;;;;;5108942;27;20046;-61
2023/05/02 18:04:52;;;;;;;3.03;1.55;;;;;;;;;;5109682;27;20211;-63
2023/05/02 18:07:22;;;;;;;8.35;1.90;;;;;;;;;;5108630;27;20046;-61
2023/05/02 18:09:51;;;;;;;4.50;1.73;;;;;;;;;;5105756;27;20051;-60
2023/05/02 18:12:18;;;;;;;6.22;2.13;;;;;;;;;;5105929;27;20239;-62
2023/05/02 18:14:44;;;;;;;8.20;1.95;;;;;;;;;;5105693;27;20109;-57
2023/05/02 18:17:10;;;;;;;6.65;2.47;;;;;;;;;;5107094;27;21074;-66
2023/05/02 18:19:36;;;;;;;6.50;2.05;;;;;;;;;;5107841;27;20049;-62
2023/05/02 18:22:02;;;;;;;5.75;1.88;;;;;;;;;;5103818;27;20055;-64
2023/05/02 18:24:30;;;;;;;9.95;2.33;;;;;;;;;;5104762;27;20076;-62
2023/05/02 18:27:35;;;;;;;7.60;2.40;;;;;;;;;;5104260;27;20834;-63
2023/05/02 18:31:17;;;;;;;6.00;2.10;;;;;;;;;;5099259;27;20052;-61
2023/05/02 18:34:18;;;;;;;7.03;2.15;;;;;;;;;;5104197;27;20114;-61
2023/05/02 18:36:44;;;;;;;6.45;2.00;;;;;;;;;;5086356;27;20050;-64
2023/05/02 18:39:10;;;;;;;5.82;2.15;;;;;;;;;;5088303;27;20582;-61
2023/05/02 18:41:38;;;;;;;7.55;2.40;;;;;;;;;;5110788;27;20059;-61
2023/05/02 18:44:06;;;;;;;7.30;2.22;;;;;;;;;;5107970;27;20531;-63
2023/05/02 18:46:33;;;;;;;5.25;2.35;;;;;;;;;;5108920;27;20135;-65
2023/05/02 18:48:59;;;;;;;6.13;2.53;;;;;;;;;;5103415;27;20595;-61
2023/05/02 18:51:26;;;;;;;3.97;2.30;;;;;;;;;;5104703;27;20047;-61
2023/05/02 18:53:53;;;;;;;5.78;2.45;;;;;;;;;;5102796;27;20062;-61
2023/05/02 18:56:20;;;;;;;8.13;2.53;;;;;;;;;;5107198;27;20066;-64
2023/05/02 18:58:47;;;;;;;5.93;2.47;;;;;;;;;;5104974;27;20082;-63
2023/05/02 19:01:16;;;;;;;6.57;2.40;;;;;;;;;;5086066;27;20223;-63
2023/05/02 19:03:42;;;;;;;6.75;2.50;;;;;;;;;;5107825;27;20055;-60
2023/05/02 19:06:09;;;;;;;5.38;2.15;;;;;;;;;;5106912;27;20055;-64
2023/05/02 19:08:35;;;;;;;6.80;2.47;;;;;;;;;;5111896;27;20572;-55
2023/05/02 19:11:01;;;;;;;6.28;2.60;;;;;;;;;;5108848;27;20055;-58
2023/05/02 19:13:27;;;;;;;6.85;2.83;;;;;;;;;;5109288;27;20479;-56
2023/05/02 19:15:55;;;;;;;7.03;2.33;;;;;;;;;;5088597;27;20047;-59
2023/05/02 19:18:21;;;;;;;7.22;2.75;;;;;;;;;;5106488;27;20111;-58
2023/05/02 19:20:49;;;;;;;6.75;2.28;;;;;;;;;;5114085;27;20054;-60
2023/05/02 19:23:15;;;;;;;4.95;2.47;;;;;;;;;;5109874;27;20680;-59
2023/05/02 19:25:41;;;;;;;6.82;2.80;;;;;;;;;;5106735;27;20545;-61
2023/05/02 19:28:07;;;;;;;6.53;2.30;;;;;;;;;;5109113;27;20047;-62
2023/05/02 19:31:13;;;;;;;7.15;2.42;;;;;;;;;;5105837;27;20063;-61
2023/05/02 19:34:53;;;;;;;5.25;2.22;;;;;;;;;;5103216;27;20093;-59
2023/05/02 19:38:33;;;;;;;12.15;2.88;;;;;;;;;;5105953;27;20243;-58
2023/05/02 19:42:14;;;;;;;7.72;3.30;;;;;;;;;;5110479;27;20047;-57
2023/05/02 19:45:54;;;;;;;9.38;2.70;;;;;;;;;;5104216;27;21039;-57
2023/05/02 19:49:34;;;;;;;9.43;2.50;;;;;;;;;;5108126;27;20047;-58
2023/05/02 19:53:15;;;;;;;7.85;2.45;;;;;;;;;;5109637;27;20141;-61
2023/05/02 19:56:57;;;;;;;8.05;2.83;;;;;;;;;;5108079;27;20055;-60
2023/05/02 20:00:37;;;;;;;4.68;2.40;;;;;;;;;;5109430;27;20054;-56